sensor_id;sensor_type;location;lat;lon;timestamp;pressure;altitude;pressure_sealevel;temperature;humidity
38191;BME280;25191;47.510;19.124;2023-06-19T00:08:12;100264.00;;;22.17;48.96
38191;BME280;25191;47.510;19.124;2023-06-19T00:28:12;100257.72;;;22.09;49.46
38191;BME280;25191;47.510;19.124;2023-06-19T00:48:13;100248.88;;;21.98;50.01
38191;BME280;25191;47.510;19.124;2023-06-19T01:28:27;100250.31;;;21.70;50.74
38191;BME280;25191;47.510;19.124;2023-06-19T01:48:28;100227.97;;;21.64;50.66
38191;BME280;25191;47.510;19.124;2023-06-19T02:08:28;100239.00;;;21.47;51.03
38191;BME280;25191;47.510;19.124;2023-06-19T02:28:28;100238.34;;;21.54;51.04
38191;BME280;25191;47.510;19.124;2023-06-19T02:48:29;100253.38;;;21.42;50.35
38191;BME280;25191;47.510;19.124;2023-06-19T03:08:29;100254.47;;;21.28;50.39
38191;BME280;25191;47.510;19.124;2023-06-19T03:28:29;100268.75;;;21.03;51.45
38191;BME280;25191;47.510;19.124;2023-06-19T03:48:30;100281.94;;;21.03;51.29
38191;BME280;25191;47.510;19.124;2023-06-19T04:08:30;100276.41;;;21.06;52.01
38191;BME280;25191;47.510;19.124;2023-06-19T04:28:30;100288.34;;;21.33;51.72
38191;BME280;25191;47.510;19.124;2023-06-19T04:48:31;100286.59;;;21.78;51.25
38191;BME280;25191;47.510;19.124;2023-06-19T05:28:35;100314.91;;;22.29;50.90
38191;BME280;25191;47.510;19.124;2023-06-19T05:48:36;100312.44;;;22.49;50.32
38191;BME280;25191;47.510;19.124;2023-06-19T06:08:36;100337.41;;;22.66;49.63
38191;BME280;25191;47.510;19.124;2023-06-19T06:28:36;100327.19;;;22.82;49.49
38191;BME280;25191;47.510;19.124;2023-06-19T06:48:38;100342.97;;;22.94;49.52
38191;BME280;25191;47.510;19.124;2023-06-19T07:08:39;100337.59;;;23.05;49.59
38191;BME280;25191;47.510;19.124;2023-06-19T07:28:41;100327.88;;;23.15;49.20
38191;BME280;25191;47.510;19.124;2023-06-19T07:48:41;100332.41;;;23.25;49.21
38191;BME280;25191;47.510;19.124;2023-06-19T08:08:41;100328.84;;;23.36;48.97
38191;BME280;25191;47.510;19.124;2023-06-19T08:28:42;100312.03;;;23.46;48.89
38191;BME280;25191;47.510;19.124;2023-06-19T08:48:42;100316.63;;;23.54;48.64
38191;BME280;25191;47.510;19.124;2023-06-19T09:08:43;100306.94;;;23.64;49.92
38191;BME280;25191;47.510;19.124;2023-06-19T09:28:43;100308.75;;;23.83;50.48
38191;BME280;25191;47.510;19.124;2023-06-19T09:48:44;100292.31;;;23.90;49.77
38191;BME280;25191;47.510;19.124;2023-06-19T10:08:45;100275.81;;;23.97;48.02
38191;BME280;25191;47.510;19.124;2023-06-19T10:28:46;100254.50;;;24.09;47.08
38191;BME280;25191;47.510;19.124;2023-06-19T10:48:46;100252.50;;;24.30;49.45
38191;BME280;25191;47.510;19.124;2023-06-19T11:08:53;100246.47;;;24.48;49.24
38191;BME280;25191;47.510;19.124;2023-06-19T11:28:53;100236.81;;;24.57;49.10
38191;BME280;25191;47.510;19.124;2023-06-19T11:49:12;100212.56;;;24.61;47.61
38191;BME280;25191;47.510;19.124;2023-06-19T12:09:13;100210.31;;;24.67;47.80
38191;BME280;25191;47.510;19.124;2023-06-19T12:29:14;100187.75;;;24.72;46.41
38191;BME280;25191;47.510;19.124;2023-06-19T12:49:14;100168.06;;;24.75;45.96
38191;BME280;25191;47.510;19.124;2023-06-19T13:09:14;100156.44;;;24.86;45.67
38191;BME280;25191;47.510;19.124;2023-06-19T13:29:15;100144.03;;;24.86;46.31
38191;BME280;25191;47.510;19.124;2023-06-19T13:49:15;100142.75;;;24.90;46.46
38191;BME280;25191;47.510;19.124;2023-06-19T14:09:16;100137.47;;;24.90;45.80
38191;BME280;25191;47.510;19.124;2023-06-19T14:29:16;100113.72;;;24.99;46.17
38191;BME280;25191;47.510;19.124;2023-06-19T14:49:18;100125.88;;;25.09;46.52
38191;BME280;25191;47.510;19.124;2023-06-19T15:09:19;100122.88;;;25.22;45.97
38191;BME280;25191;47.510;19.124;2023-06-19T15:29:19;100118.91;;;25.26;47.46
38191;BME280;25191;47.510;19.124;2023-06-19T15:49:19;100111.03;;;25.35;46.80
38191;BME280;25191;47.510;19.124;2023-06-19T16:09:21;100113.78;;;25.43;45.64
38191;BME280;25191;47.510;19.124;2023-06-19T16:29:22;100114.78;;;25.42;46.04
38191;BME280;25191;47.510;19.124;2023-06-19T16:49:22;100114.09;;;25.40;44.66
38191;BME280;25191;47.510;19.124;2023-06-19T17:09:23;100111.13;;;25.61;44.16
38191;BME280;25191;47.510;19.124;2023-06-19T17:29:24;100120.56;;;25.64;43.80
38191;BME280;25191;47.510;19.124;2023-06-19T17:49:26;100138.63;;;25.60;43.34
38191;BME280;25191;47.510;19.124;2023-06-19T18:09:26;100151.19;;;25.58;44.20
38191;BME280;25191;47.510;19.124;2023-06-19T18:29:26;100150.66;;;25.54;44.76
38191;BME280;25191;47.510;19.124;2023-06-19T18:49:30;100164.91;;;25.53;44.86
38191;BME280;25191;47.510;19.124;2023-06-19T19:09:30;100187.06;;;25.34;45.43
38191;BME280;25191;47.510;19.124;2023-06-19T19:29:31;100199.81;;;25.31;45.81
38191;BME280;25191;47.510;19.124;2023-06-19T19:49:31;100225.06;;;25.25;45.42
38191;BME280;25191;47.510;19.124;2023-06-19T20:09:34;100232.81;;;25.18;45.78
38191;BME280;25191;47.510;19.124;2023-06-19T20:29:35;100236.16;;;25.10;45.79
38191;BME280;25191;47.510;19.124;2023-06-19T20:49:35;100240.56;;;25.02;46.85
38191;BME280;25191;47.510;19.124;2023-06-19T21:09:35;100269.31;;;24.97;46.73
38191;BME280;25191;47.510;19.124;2023-06-19T21:29:36;100269.59;;;24.93;47.07
38191;BME280;25191;47.510;19.124;2023-06-19T21:49:37;100278.50;;;24.92;47.15
38191;BME280;25191;47.510;19.124;2023-06-19T22:09:39;100297.91;;;24.93;47.77
38191;BME280;25191;47.510;19.124;2023-06-19T22:29:39;100298.88;;;24.92;47.57
38191;BME280;25191;47.510;19.124;2023-06-19T22:49:39;100292.88;;;24.90;47.68
38191;BME280;25191;47.510;19.124;2023-06-19T23:09:40;100296.66;;;24.87;47.62
38191;BME280;25191;47.510;19.124;2023-06-19T23:29:41;100282.75;;;24.85;47.88
38191;BME280;25191;47.510;19.124;2023-06-19T23:49:41;100272.28;;;24.84;47.85
